createdAt,value
2022-10-22T00:00:01.572Z,34.70
2022-10-22T00:02:28.033Z,33.35
2022-10-22T00:04:56.734Z,34.38
2022-10-22T00:07:23.391Z,35.08
2022-10-22T00:09:49.937Z,33.90
2022-10-22T00:12:16.628Z,37.97
2022-10-22T00:14:43.403Z,36.00
2022-10-22T00:17:11.469Z,34.25
2022-10-22T00:19:38.624Z,32.78
2022-10-22T00:22:05.710Z,33.67
2022-10-22T00:24:33.449Z,34.05
2022-10-22T00:26:59.970Z,34.08
2022-10-22T00:29:26.475Z,36.25
2022-10-22T00:31:53.109Z,33.20
2022-10-22T00:34:21.262Z,34.35
2022-10-22T00:36:48.478Z,33.13
2022-10-22T00:39:17.030Z,34.20
2022-10-22T00:41:45.438Z,32.70
2022-10-22T00:44:49.279Z,33.97
2022-10-22T00:47:17.559Z,31.65
2022-10-22T00:49:46.536Z,32.63
2022-10-22T00:52:13.622Z,32.38
2022-10-22T00:54:41.237Z,33.55
2022-10-22T00:57:07.740Z,33.03
2022-10-22T00:59:34.450Z,33.22
2022-10-22T01:02:01.052Z,32.38
2022-10-22T01:04:27.371Z,31.52
2022-10-22T01:06:53.915Z,32.42
2022-10-22T01:09:23.325Z,32.05
2022-10-22T01:11:53.478Z,30.42
2022-10-22T01:14:28.771Z,28.33
2022-10-22T01:17:08.608Z,31.77
2022-10-22T01:19:43.933Z,30.80
2022-10-22T01:22:52.254Z,31.65
2022-10-22T01:25:35.274Z,29.83
2022-10-22T01:28:31.667Z,29.52
2022-10-22T01:31:01.276Z,32.20
2022-10-22T01:33:29.298Z,30.40
2022-10-22T01:35:57.386Z,32.47
2022-10-22T01:38:25.743Z,28.92
2022-10-22T01:40:52.235Z,30.60
2022-10-22T01:43:18.996Z,31.45
2022-10-22T01:45:52.276Z,33.47
2022-10-22T01:48:40.476Z,31.05
2022-10-22T01:51:27.993Z,32.90
2022-10-22T01:54:03.402Z,32.83
2022-10-22T01:57:07.128Z,29.55
2022-10-22T02:00:07.432Z,30.17
2022-10-22T02:02:42.243Z,31.33
2022-10-22T02:05:14.615Z,29.25
2022-10-22T02:07:49.118Z,31.23
2022-10-22T02:10:18.720Z,30.52
2022-10-22T02:12:50.236Z,29.70
2022-10-22T02:15:19.345Z,30.88
2022-10-22T02:17:47.116Z,30.67
2022-10-22T02:20:19.326Z,30.15
2022-10-22T02:22:46.850Z,32.67
2022-10-22T02:25:14.375Z,32.85
2022-10-22T02:27:51.823Z,31.10
2022-10-22T02:30:22.346Z,31.05
2022-10-22T02:32:53.835Z,31.52
2022-10-22T02:35:23.152Z,32.50
2022-10-22T02:37:51.220Z,30.05
2022-10-22T02:40:18.471Z,31.73
2022-10-22T02:42:48.235Z,34.95
2022-10-22T02:45:15.163Z,35.55
2022-10-22T02:47:41.515Z,32.38
2022-10-22T02:50:10.289Z,32.15
2022-10-22T02:52:37.324Z,32.95
2022-10-22T02:55:05.011Z,33.72
2022-10-22T02:57:31.416Z,32.85
2022-10-22T02:59:57.822Z,35.45
2022-10-22T03:02:24.520Z,33.83
2022-10-22T03:04:50.834Z,32.90
2022-10-22T03:07:17.227Z,34.97
2022-10-22T03:09:43.564Z,33.90
2022-10-22T03:12:09.876Z,32.70
2022-10-22T03:14:36.165Z,32.83
2022-10-22T03:17:02.634Z,33.00
2022-10-22T03:19:28.937Z,32.70
2022-10-22T03:22:08.487Z,34.17
2022-10-22T03:24:39.780Z,33.10
2022-10-22T03:27:06.406Z,33.28
2022-10-22T03:29:35.983Z,34.83
2022-10-22T03:32:02.295Z,34.70
2022-10-22T03:34:28.690Z,33.17
2022-10-22T03:36:57.396Z,32.40
2022-10-22T03:39:23.823Z,33.78
2022-10-22T03:41:51.989Z,35.38
2022-10-22T03:44:18.758Z,35.00
2022-10-22T03:46:45.317Z,35.15
2022-10-22T03:49:11.878Z,34.70
2022-10-22T03:51:38.365Z,35.15
2022-10-22T03:54:05.102Z,34.55
2022-10-22T03:56:31.760Z,32.45
2022-10-22T03:58:59.323Z,35.88
2022-10-22T04:01:26.669Z,36.85
2022-10-22T04:03:53.497Z,37.75
2022-10-22T04:06:19.837Z,37.13
2022-10-22T04:08:46.323Z,40.45
2022-10-22T04:11:14.051Z,37.03
2022-10-22T04:13:40.940Z,40.05
2022-10-22T04:16:16.150Z,40.15
2022-10-22T04:18:43.647Z,39.30
2022-10-22T04:21:12.566Z,40.15
2022-10-22T04:23:39.223Z,41.30
2022-10-22T04:26:07.998Z,39.50
2022-10-22T04:28:35.140Z,43.15
2022-10-22T04:31:07.606Z,40.20
2022-10-22T04:33:33.912Z,45.10
2022-10-22T04:36:00.229Z,39.95
2022-10-22T04:38:26.523Z,40.60
2022-10-22T04:40:52.838Z,40.58
2022-10-22T04:43:19.224Z,37.40
2022-10-22T04:45:45.542Z,37.78
2022-10-22T04:48:11.925Z,39.17
2022-10-22T04:50:38.318Z,40.15
2022-10-22T04:53:04.756Z,37.10
2022-10-22T04:58:02.346Z,39.65
2022-10-22T05:00:28.671Z,35.67
2022-10-22T05:02:55.067Z,39.28
2022-10-22T05:05:21.402Z,40.80
2022-10-22T05:07:47.764Z,41.88
2022-10-22T05:10:14.138Z,38.13
2022-10-22T05:12:40.527Z,38.60
2022-10-22T05:15:07.575Z,40.92
2022-10-22T05:17:37.533Z,40.72
2022-10-22T05:20:05.315Z,45.08
2022-10-22T05:22:33.155Z,51.55
2022-10-22T05:24:59.455Z,50.80
2022-10-22T05:27:25.965Z,56.67
2022-10-22T05:29:52.693Z,54.80
2022-10-22T05:32:19.004Z,53.47
2022-10-22T05:34:45.341Z,51.90
2022-10-22T05:37:11.653Z,48.60
2022-10-22T05:39:40.188Z,50.35
2022-10-22T05:42:06.544Z,51.58
2022-10-22T05:44:32.989Z,50.40
2022-10-22T05:46:59.294Z,52.60
2022-10-22T05:49:25.593Z,51.17
2022-10-22T05:51:51.928Z,49.33
2022-10-22T05:54:20.738Z,49.70
2022-10-22T05:56:47.118Z,52.70
2022-10-22T05:59:13.508Z,48.20
2022-10-22T06:01:40.979Z,48.88
2022-10-22T06:04:10.555Z,49.33
2022-10-22T06:06:36.829Z,46.17
2022-10-22T06:09:23.770Z,41.60
2022-10-22T06:11:50.919Z,43.67
2022-10-22T06:14:18.521Z,44.97
2022-10-22T06:16:44.971Z,44.45
2022-10-22T06:19:12.945Z,44.92
2022-10-22T06:21:39.527Z,43.95
2022-10-22T06:24:06.310Z,44.25
2022-10-22T06:26:32.670Z,44.47
2022-10-22T06:28:59.446Z,40.85
2022-10-22T06:31:26.769Z,39.70
2022-10-22T06:33:53.335Z,44.92
2022-10-22T06:36:22.562Z,40.85
2022-10-22T06:38:53.380Z,43.22
2022-10-22T06:41:21.376Z,45.15
2022-10-22T06:43:49.992Z,41.85
2022-10-22T06:46:20.256Z,41.88
2022-10-22T06:48:59.271Z,42.97
2022-10-22T06:51:26.643Z,38.20
2022-10-22T06:53:53.797Z,40.67
2022-10-22T06:56:22.535Z,42.75
2022-10-22T06:58:49.955Z,40.45
2022-10-22T07:01:18.685Z,39.95
2022-10-22T07:03:45.766Z,39.08
2022-10-22T07:06:14.250Z,40.08
2022-10-22T07:08:41.641Z,38.58
2022-10-22T07:11:13.735Z,38.53
2022-10-22T07:13:40.328Z,37.53
2022-10-22T07:16:08.173Z,37.05
2022-10-22T07:18:35.705Z,36.65
2022-10-22T07:21:03.195Z,37.42
2022-10-22T07:23:30.526Z,36.25
2022-10-22T07:28:29.098Z,35.55
2022-10-22T07:30:55.449Z,33.67
2022-10-22T07:33:21.798Z,32.38
2022-10-22T07:35:48.202Z,35.55
2022-10-22T07:38:14.519Z,35.08
2022-10-22T07:40:40.829Z,33.50
2022-10-22T07:43:07.216Z,37.22
2022-10-22T07:45:33.777Z,34.80
2022-10-22T07:48:00.642Z,36.83
2022-10-22T07:50:26.981Z,30.45
2022-10-22T07:52:54.848Z,33.22
2022-10-22T07:55:23.737Z,36.55
2022-10-22T07:57:50.045Z,34.38
2022-10-22T08:00:17.837Z,35.53
2022-10-22T08:02:46.252Z,35.80
2022-10-22T08:05:13.375Z,36.58
2022-10-22T08:07:40.823Z,36.90
2022-10-22T08:10:08.077Z,35.33
2022-10-22T08:12:34.435Z,36.00
2022-10-22T08:15:00.861Z,37.22
2022-10-22T08:17:27.779Z,35.03
2022-10-22T08:19:54.241Z,34.95
2022-10-22T08:22:20.606Z,37.85
2022-10-22T08:24:46.903Z,35.78
2022-10-22T08:27:13.329Z,32.75
2022-10-22T08:29:40.201Z,31.95
2022-10-22T08:32:06.810Z,33.05
2022-10-22T08:34:33.430Z,30.02
2022-10-22T08:37:00.105Z,32.88
2022-10-22T08:39:26.639Z,28.80
2022-10-22T08:42:08.375Z,29.10
2022-10-22T08:44:48.259Z,32.65
2022-10-22T08:47:34.722Z,36.40
2022-10-22T08:50:02.305Z,32.63
2022-10-22T08:52:31.023Z,33.95
2022-10-22T08:55:00.112Z,33.35
2022-10-22T08:58:03.702Z,33.65
2022-10-22T09:00:46.052Z,31.95
2022-10-22T09:03:32.921Z,34.47
2022-10-22T09:06:05.938Z,34.40
2022-10-22T09:08:32.754Z,31.98
2022-10-22T09:11:06.901Z,33.13
2022-10-22T09:13:33.473Z,32.03
2022-10-22T09:16:11.157Z,32.78
2022-10-22T09:19:14.798Z,29.75
2022-10-22T09:21:50.806Z,34.22
2022-10-22T09:24:26.663Z,33.05
2022-10-22T09:26:57.633Z,31.10
2022-10-22T09:29:32.569Z,31.95
2022-10-22T09:31:59.411Z,34.25
2022-10-22T09:34:25.920Z,29.50
2022-10-22T09:37:01.487Z,27.08
2022-10-22T09:39:38.793Z,25.65
2022-10-22T09:42:07.022Z,27.50
2022-10-22T09:44:37.282Z,28.83
2022-10-22T09:47:32.654Z,28.42
2022-10-22T09:50:09.643Z,26.70
2022-10-22T09:52:36.323Z,28.15
2022-10-22T09:55:06.931Z,25.48
2022-10-22T09:57:37.892Z,23.35
2022-10-22T10:00:10.107Z,20.48
2022-10-22T10:02:40.488Z,19.38
2022-10-22T10:05:08.320Z,20.45
2022-10-22T10:07:36.115Z,20.88
2022-10-22T10:10:16.038Z,21.40
2022-10-22T10:12:56.608Z,21.83
2022-10-22T10:15:44.003Z,20.38
2022-10-22T10:18:38.991Z,19.95
2022-10-22T10:24:18.758Z,19.52
2022-10-22T10:26:54.528Z,20.60
2022-10-22T10:29:39.214Z,21.40
2022-10-22T10:35:20.567Z,23.50
2022-10-22T10:37:54.141Z,19.80
2022-10-22T10:40:26.680Z,18.98
2022-10-22T10:43:07.298Z,18.38
2022-10-22T10:45:36.332Z,19.58
2022-10-22T10:48:25.788Z,18.58
2022-10-22T10:51:04.891Z,18.85
2022-10-22T10:53:43.113Z,20.67
2022-10-22T10:56:39.200Z,19.83
2022-10-22T10:59:14.453Z,21.00
2022-10-22T11:01:52.483Z,20.15
2022-10-22T11:04:30.589Z,21.77
2022-10-22T11:07:11.155Z,22.35
2022-10-22T11:09:50.665Z,20.70
2022-10-22T11:12:34.129Z,21.55
2022-10-22T11:15:27.974Z,19.98
2022-10-22T11:18:00.713Z,22.45
2022-10-22T11:21:11.401Z,20.63
2022-10-22T11:23:56.519Z,19.60
2022-10-22T11:26:25.934Z,21.27
2022-10-22T11:28:53.759Z,22.75
2022-10-22T11:31:23.032Z,20.08
2022-10-22T11:34:05.012Z,20.65
2022-10-22T11:36:38.491Z,17.63
2022-10-22T11:39:05.048Z,19.70
2022-10-22T11:41:36.222Z,21.00
2022-10-22T11:44:22.553Z,17.83
2022-10-22T11:46:58.534Z,19.55
2022-10-22T11:49:43.160Z,20.52
2022-10-22T11:52:35.523Z,20.50
2022-10-22T11:55:03.719Z,19.55
2022-10-22T11:57:38.454Z,21.48
2022-10-22T12:00:41.304Z,19.92
2022-10-22T12:03:18.444Z,23.25
2022-10-22T12:05:46.672Z,22.17
2022-10-22T12:08:20.737Z,20.65
2022-10-22T12:11:19.422Z,21.55
2022-10-22T12:14:10.740Z,22.33
2022-10-22T12:16:58.083Z,22.67
2022-10-22T12:19:27.537Z,24.92
2022-10-22T12:21:57.765Z,23.40
2022-10-22T12:24:26.080Z,22.70
2022-10-22T12:26:52.787Z,22.52
2022-10-22T12:29:23.583Z,20.60
2022-10-22T12:31:50.161Z,23.73
2022-10-22T12:34:24.013Z,17.67
2022-10-22T12:36:53.602Z,16.10
2022-10-22T12:39:25.022Z,14.93
2022-10-22T12:41:53.551Z,13.15
2022-10-22T12:44:19.988Z,12.82
2022-10-22T12:46:51.780Z,13.45
2022-10-22T12:49:23.497Z,12.05
2022-10-22T12:51:50.120Z,11.57
2022-10-22T12:54:25.839Z,14.13
2022-10-22T12:56:53.480Z,13.80
2022-10-22T12:59:30.606Z,13.70
2022-10-22T13:01:57.144Z,14.30
2022-10-22T13:04:26.768Z,14.20
2022-10-22T13:07:16.947Z,13.27
2022-10-22T13:10:01.170Z,11.30
2022-10-22T13:12:36.011Z,11.70
2022-10-22T13:15:33.767Z,11.75
2022-10-22T13:18:22.898Z,12.60
2022-10-22T13:21:03.046Z,12.20
2022-10-22T13:23:32.234Z,12.65
2022-10-22T13:26:19.011Z,11.60
2022-10-22T13:28:54.610Z,13.15
2022-10-22T13:31:27.182Z,13.35
2022-10-22T13:33:58.149Z,16.05
2022-10-22T13:36:25.087Z,14.75
2022-10-22T13:38:51.905Z,12.98
2022-10-22T13:41:27.555Z,13.57
2022-10-22T13:43:55.459Z,14.25
2022-10-22T13:46:23.646Z,12.02
2022-10-22T13:48:52.801Z,13.13
2022-10-22T13:51:24.804Z,14.75
2022-10-22T13:53:53.589Z,16.02
2022-10-22T13:56:21.711Z,15.65
2022-10-22T13:58:48.738Z,14.20
2022-10-22T14:01:26.227Z,12.18
2022-10-22T14:03:57.944Z,16.23
2022-10-22T14:06:28.749Z,14.30
2022-10-22T14:09:00.040Z,13.05
2022-10-22T14:11:27.290Z,14.40
2022-10-22T14:13:54.422Z,13.23
2022-10-22T14:16:24.048Z,16.17
2022-10-22T14:18:51.444Z,19.20
2022-10-22T14:21:19.023Z,15.23
2022-10-22T14:23:47.839Z,16.65
2022-10-22T14:26:30.178Z,17.27
2022-10-22T14:29:09.432Z,14.77
2022-10-22T14:31:38.134Z,17.33
2022-10-22T14:34:04.626Z,16.35
2022-10-22T14:36:31.116Z,20.40
2022-10-22T14:38:57.689Z,19.35
2022-10-22T14:41:27.978Z,15.38
2022-10-22T14:43:59.640Z,13.85
2022-10-22T14:46:26.268Z,13.63
2022-10-22T14:48:52.850Z,12.68
2022-10-22T14:51:21.326Z,13.93
2022-10-22T14:53:48.161Z,12.48
2022-10-22T14:56:17.766Z,11.05
2022-10-22T14:58:45.519Z,12.73
2022-10-22T15:01:12.116Z,13.55
2022-10-22T15:03:38.885Z,11.48
2022-10-22T15:06:05.916Z,13.77
2022-10-22T15:08:33.116Z,12.40
2022-10-22T15:11:00.636Z,13.85
2022-10-22T15:13:29.159Z,12.65
2022-10-22T15:15:57.012Z,13.52
2022-10-22T15:18:23.979Z,13.65
2022-10-22T15:21:02.889Z,13.50
2022-10-22T15:23:29.527Z,13.23
2022-10-22T15:25:56.559Z,12.75
2022-10-22T15:28:24.149Z,13.52
2022-10-22T15:30:56.738Z,14.93
2022-10-22T15:33:23.954Z,16.75
2022-10-22T15:35:50.693Z,18.70
2022-10-22T15:38:17.855Z,21.17
2022-10-22T15:40:44.676Z,23.55
2022-10-22T15:43:11.983Z,24.83
2022-10-22T15:45:39.492Z,25.33
2022-10-22T15:48:06.173Z,26.88
2022-10-22T15:50:36.971Z,24.80
2022-10-22T15:53:03.620Z,26.55
2022-10-22T15:55:30.499Z,24.88
2022-10-22T15:57:59.225Z,22.73
2022-10-22T16:00:28.209Z,22.17
2022-10-22T16:02:55.083Z,21.83
2022-10-22T16:05:21.457Z,20.75
2022-10-22T16:07:47.867Z,19.33
2022-10-22T16:10:14.256Z,19.58
2022-10-22T16:12:41.497Z,19.67
2022-10-22T16:15:09.140Z,18.75
2022-10-22T16:17:35.923Z,18.75
2022-10-22T16:20:02.352Z,19.08
2022-10-22T16:22:34.924Z,22.25
2022-10-22T16:25:01.614Z,22.30
2022-10-22T16:27:28.019Z,22.20
2022-10-22T16:29:57.478Z,25.40
2022-10-22T16:32:23.832Z,25.33
2022-10-22T16:34:50.130Z,25.90
2022-10-22T16:37:16.451Z,23.73
2022-10-22T16:39:42.746Z,25.50
2022-10-22T16:42:09.053Z,25.55
2022-10-22T16:44:35.365Z,26.30
2022-10-22T16:47:01.713Z,24.80
2022-10-22T16:49:28.034Z,27.10
2022-10-22T16:51:54.353Z,28.40
2022-10-22T16:54:21.686Z,29.52
2022-10-22T16:56:48.061Z,31.83
2022-10-22T16:59:14.624Z,30.60
2022-10-22T17:01:41.607Z,30.58
2022-10-22T17:04:08.299Z,32.88
2022-10-22T17:06:34.657Z,32.80
2022-10-22T17:09:01.099Z,35.70
2022-10-22T17:11:30.144Z,35.13
2022-10-22T17:13:56.789Z,32.90
2022-10-22T17:16:24.920Z,32.90
2022-10-22T17:18:53.716Z,32.33
2022-10-22T17:21:21.125Z,34.75
2022-10-22T17:23:48.078Z,31.67
2022-10-22T17:26:20.811Z,30.00
2022-10-22T17:28:47.919Z,30.48
2022-10-22T17:31:20.438Z,31.42
2022-10-22T17:33:48.618Z,30.83
2022-10-22T17:36:16.435Z,36.88
2022-10-22T17:38:43.385Z,34.10
2022-10-22T17:41:17.653Z,33.78
2022-10-22T17:46:24.451Z,35.00
2022-10-22T17:48:52.480Z,34.50
2022-10-22T17:51:19.711Z,36.63
2022-10-22T17:53:46.494Z,36.15
2022-10-22T17:56:15.116Z,39.10
2022-10-22T17:58:41.819Z,36.40
2022-10-22T18:01:25.966Z,32.70
2022-10-22T18:03:53.993Z,27.23
2022-10-22T18:06:21.155Z,29.02
2022-10-22T18:08:47.585Z,27.30
2022-10-22T18:11:17.359Z,29.88
2022-10-22T18:13:43.736Z,27.80
2022-10-22T18:16:10.306Z,26.05
2022-10-22T18:18:36.666Z,29.17
2022-10-22T18:21:03.749Z,29.27
2022-10-22T18:23:30.050Z,31.73
2022-10-22T18:25:56.372Z,29.42
2022-10-22T18:28:22.713Z,28.33
2022-10-22T18:30:49.085Z,27.40
2022-10-22T18:33:18.208Z,28.08
2022-10-22T18:35:46.064Z,29.55
2022-10-22T18:38:12.486Z,30.90
2022-10-22T18:40:45.940Z,29.85
2022-10-22T18:43:12.638Z,27.97
2022-10-22T18:45:46.775Z,26.42
2022-10-22T18:48:15.769Z,27.45
2022-10-22T18:50:42.835Z,25.20
2022-10-22T18:53:10.142Z,28.60
2022-10-22T18:55:39.594Z,30.77
2022-10-22T18:58:06.402Z,29.63
2022-10-22T19:00:35.112Z,29.10
2022-10-22T19:03:03.069Z,30.90
2022-10-22T19:05:29.361Z,28.98
2022-10-22T19:07:55.674Z,34.30
2022-10-22T19:10:21.977Z,33.67
2022-10-22T19:12:48.311Z,31.73
2022-10-22T19:15:14.683Z,34.70
2022-10-22T19:17:41.280Z,36.22
2022-10-22T19:20:08.413Z,38.28
2022-10-22T19:22:34.731Z,36.40
2022-10-22T19:25:01.039Z,36.70
2022-10-22T19:27:27.364Z,37.58
2022-10-22T19:29:53.665Z,39.00
2022-10-22T19:32:20.147Z,38.72
2022-10-22T19:34:47.072Z,36.83
2022-10-22T19:37:13.466Z,37.13
2022-10-22T19:39:39.803Z,36.35
2022-10-22T19:42:06.212Z,36.40
2022-10-22T19:44:32.563Z,37.67
2022-10-22T19:46:58.878Z,38.22
2022-10-22T19:49:25.343Z,39.33
2022-10-22T19:51:51.719Z,37.17
2022-10-22T19:54:19.505Z,37.25
2022-10-22T19:56:47.441Z,37.42
2022-10-22T19:59:14.847Z,39.17
2022-10-22T20:01:41.297Z,37.70
2022-10-22T20:04:07.705Z,41.45
2022-10-22T20:06:34.062Z,39.55
2022-10-22T20:09:00.416Z,41.15
2022-10-22T20:11:29.429Z,40.92
2022-10-22T20:13:57.079Z,41.38
2022-10-22T20:16:28.282Z,38.53
2022-10-22T20:18:54.614Z,40.20
2022-10-22T20:21:21.841Z,43.05
2022-10-22T20:23:52.607Z,40.92
2022-10-22T20:26:20.159Z,41.28
2022-10-22T20:28:46.659Z,41.72
2022-10-22T20:31:15.882Z,42.30
2022-10-22T20:33:42.772Z,44.72
2022-10-22T20:36:20.775Z,39.80
2022-10-22T20:38:48.153Z,38.05
2022-10-22T20:41:17.971Z,41.90
2022-10-22T20:43:48.298Z,40.17
2022-10-22T20:46:19.207Z,36.78
2022-10-22T20:48:46.110Z,39.25
2022-10-22T20:51:13.144Z,37.65
2022-10-22T20:53:39.451Z,38.95
2022-10-22T20:56:06.816Z,37.58
2022-10-22T20:58:33.377Z,38.40
2022-10-22T21:01:05.191Z,36.70
2022-10-22T21:03:31.501Z,36.33
2022-10-22T21:05:57.809Z,36.55
2022-10-22T21:08:24.109Z,37.20
2022-10-22T21:10:50.391Z,36.90
2022-10-22T21:13:17.079Z,39.05
2022-10-22T21:15:43.412Z,38.90
2022-10-22T21:18:09.712Z,39.65
2022-10-22T21:20:38.312Z,39.17
2022-10-22T21:23:04.685Z,39.95
2022-10-22T21:25:31.286Z,39.28
2022-10-22T21:27:57.792Z,38.58
2022-10-22T21:30:24.177Z,38.78
2022-10-22T21:32:51.647Z,40.88
2022-10-22T21:35:18.124Z,37.80
2022-10-22T21:37:44.617Z,40.00
2022-10-22T21:40:11.653Z,40.70
2022-10-22T21:42:37.968Z,39.55
2022-10-22T21:45:07.929Z,36.67
2022-10-22T21:47:36.706Z,38.20
2022-10-22T21:50:03.291Z,40.05
2022-10-22T21:52:29.619Z,42.20
2022-10-22T21:54:55.954Z,39.47
2022-10-22T21:57:22.300Z,40.47
2022-10-22T21:59:48.642Z,39.42
2022-10-22T22:02:14.998Z,39.28
2022-10-22T22:04:41.349Z,38.40
2022-10-22T22:07:07.729Z,41.78
2022-10-22T22:09:34.109Z,41.35
2022-10-22T22:12:00.461Z,37.80
2022-10-22T22:14:26.751Z,38.05
2022-10-22T22:16:53.052Z,39.90
2022-10-22T22:19:19.435Z,38.17
2022-10-22T22:21:45.769Z,39.55
2022-10-22T22:24:13.144Z,41.53
2022-10-22T22:26:40.289Z,40.00
2022-10-22T22:29:06.637Z,39.58
2022-10-22T22:31:35.211Z,38.92
2022-10-22T22:34:07.002Z,38.42
2022-10-22T22:36:39.605Z,42.13
2022-10-22T22:39:08.253Z,38.80
2022-10-22T22:41:35.034Z,40.60
2022-10-22T22:44:01.685Z,39.10
2022-10-22T22:46:28.628Z,40.90
2022-10-22T22:48:54.979Z,40.65
2022-10-22T22:51:21.512Z,40.13
2022-10-22T22:53:48.055Z,42.13
2022-10-22T22:56:22.905Z,40.38
2022-10-22T22:58:49.671Z,39.60
2022-10-22T23:01:18.933Z,38.15
2022-10-22T23:03:48.761Z,37.05
2022-10-22T23:06:15.799Z,37.83
2022-10-22T23:08:42.228Z,38.50
2022-10-22T23:11:12.465Z,39.00
2022-10-22T23:13:40.293Z,39.67
2022-10-22T23:16:08.329Z,34.67
2022-10-22T23:18:35.429Z,39.38
2022-10-22T23:21:06.473Z,39.55
2022-10-22T23:23:34.163Z,38.70
2022-10-22T23:26:01.404Z,36.45
2022-10-22T23:28:28.158Z,39.22
2022-10-22T23:30:54.552Z,37.70
2022-10-22T23:33:20.995Z,38.70
2022-10-22T23:35:47.661Z,35.67
2022-10-22T23:38:13.988Z,36.88
2022-10-22T23:40:40.693Z,38.65
2022-10-22T23:43:07.059Z,36.90
2022-10-22T23:45:34.502Z,38.35
2022-10-22T23:48:00.937Z,37.05
2022-10-22T23:50:27.327Z,36.95
2022-10-22T23:52:53.656Z,39.47
2022-10-22T23:55:20.030Z,40.53
2022-10-22T23:57:46.478Z,39.70
